Nacogdoches, TX

7:48 AM CST on December 18, 2014 (GMT -0600)
Henderson | Change Station
CLOSE
Current Station
Airport
Location: Henderson,
Elevation: 443 ft
Nearby Weather Stations

Elev 443 ft 32.14 °N, 94.85 °W | Updated 13 minutes ago

Overcast
Overcast
44 °F
Feels Like 43 °F
N
4
Wind Variable Wind from East

Today
High -- | Low -- °F
--% Chance of Precip.
Yesterday
High -- | Low -- °F
Precip. -- in
7:12 AM 5:18 PM
Waning Crescent, 14% visible
Pressure 30.17 in
Visibility 7.0 miles
Clouds Overcast 500 ft
Windchill 43 °F
Dew Point 44 °F
Humidity 99%
Rainfall 0.00 in
Snow Depth Not available.
UV 0 out of 12
Pollen .40 out of 12
Air Quality Not available.
Flu Activity Not available.
METAR KRFI 181335Z AUTO 08003KT 7SM OVC005 07/07 A3017 RMK AO2 T00690067

More Conditions Fewer Conditions

Pressure 30.17 in
Visibility 7.0 miles
Clouds Overcast 500 ft
Windchill 43 °F
Dew Point 44 °F
Humidity 99%
Rainfall 0.00 in
Snow Depth Not available.
UV 0 out of 12
Pollen .40 out of 12
Air Quality Not available.
Flu Activity Not available.
METAR KRFI 181335Z AUTO 08003KT 7SM OVC005 07/07 A3017 RMK AO2 T00690067

More Conditions Fewer Conditions

Nowcast | as of 6:51 am CST on December 18, 2014

Scattered areas of light rain continue to move eastward this morning across most of northern Louisiana....as well as adjacent counties in east central Texas and extreme southern Arkansas. This activity will produce additional rainfall amounts generally under one tenth of an inch through the morning.

×

10-Day Weather Forecast

Almanac

Astronomy

Dec. 18, 2014 Rise Set
Actual Time
Civil Twilight
Nautical Twilight
Astronomical Twilight
Moon
Length of Visible Light
Length of Day
Tomorrow will be .
, % of the Moon is Illuminated

Today's Extremes

State Highs State Lows

Community

WunderPhotos

Upload Photos

1,778,928 photos uploaded!

WunderBlogs® & News

Nearby

Air Quality

  Air Quality AQ Index Pollutant
Not available.

Snow Depth

Station Depth Elevation

Earthquake Activity

City Distance Mag. Time & Date
Minimum magnitude displayed is 2.5.

Coastal Water Temperatures

Place Temperature

Nearby Weather Stations